AAL824 KBOS-KCLE
Flight info
| Callsign | AAL824 |
|---|---|
| Flight time | 1h 31m |
| Altitude | 35000 |
| Route | HYLND7 HYLND CAM Q822 GONZZ HANKK THOME TRYBE4 |
| Aircraft | B738/M-SDE2E3FGHIRWXY/LB1 |
Departure
| Time | 2026-05-05 01:43 |
|---|---|
| Airport | Boston Logan International Airport (KBOS) |
Arrival
| Time | 2026-05-05 03:14 |
|---|---|
| Airport | Cleveland Hopkins International Airport (KCLE) |
| Time | Latitude | Longitude | Altitude | Speed | Heading |
|---|---|---|---|---|---|
| 2026-05-05 01:18 | 42.36575 | -71.01386 | 27 ft | 0 kts | 299° |
| 2026-05-05 01:35 | 42.36574 | -71.01384 | 23 ft | 2 kts | 299° |
| 2026-05-05 01:36 | 42.36565 | -71.01363 | 27 ft | 0 kts | 299° |
| 2026-05-05 01:36 | 42.36552 | -71.01331 | 27 ft | 4 kts | 299° |
| 2026-05-05 01:36 | 42.36548 | -71.01321 | 27 ft | 1 kts | 337° |
| 2026-05-05 01:36 | 42.36536 | -71.01322 | 28 ft | 0 kts | 26° |
| 2026-05-05 01:39 | 42.36569 | -71.01303 | 26 ft | 11 kts | 21° |
| 2026-05-05 01:39 | 42.36649 | -71.01266 | 28 ft | 6 kts | 17° |
| 2026-05-05 01:40 | 42.36699 | -71.01248 | 26 ft | 10 kts | 13° |
| 2026-05-05 01:40 | 42.36774 | -71.01259 | 25 ft | 10 kts | 329° |
| 2026-05-05 01:40 | 42.36860 | -71.01254 | 25 ft | 18 kts | 39° |
| 2026-05-05 01:40 | 42.36969 | -71.01126 | 25 ft | 24 kts | 38° |
| 2026-05-05 01:41 | 42.37130 | -71.01015 | 21 ft | 26 kts | 26° |
| 2026-05-05 01:41 | 42.37291 | -71.00911 | 21 ft | 25 kts | 22° |
| 2026-05-05 01:41 | 42.37448 | -71.00838 | 22 ft | 23 kts | 19° |
| 2026-05-05 01:41 | 42.37596 | -71.00764 | 25 ft | 22 kts | 21° |
| 2026-05-05 01:42 | 42.37737 | -71.00694 | 28 ft | 18 kts | 19° |
| 2026-05-05 01:42 | 42.37825 | -71.00646 | 28 ft | 14 kts | 37° |
| 2026-05-05 01:42 | 42.37815 | -71.00502 | 29 ft | 20 kts | 135° |
| 2026-05-05 01:42 | 42.37644 | -71.00542 | 26 ft | 54 kts | 201° |
| 2026-05-05 01:43 | 42.36995 | -71.00860 | 25 ft | 141 kts | 201° |
| 2026-05-05 01:43 | 42.35966 | -71.01365 | 673 ft | 167 kts | 200° |
| 2026-05-05 01:43 | 42.34905 | -71.01895 | 2085 ft | 153 kts | 201° |
| 2026-05-05 01:43 | 42.33831 | -71.01835 | 3289 ft | 171 kts | 168° |
| 2026-05-05 01:44 | 42.32751 | -71.00771 | 3826 ft | 216 kts | 134° |
| 2026-05-05 01:44 | 42.31920 | -70.98853 | 4050 ft | 252 kts | 122° |
| 2026-05-05 01:44 | 42.31109 | -70.96721 | 4063 ft | 260 kts | 121° |
| 2026-05-05 01:44 | 42.30435 | -70.94363 | 3921 ft | 281 kts | 103° |
| 2026-05-05 01:45 | 42.30614 | -70.91705 | 3995 ft | 294 kts | 67° |
| 2026-05-05 01:45 | 42.31572 | -70.89249 | 3993 ft | 295 kts | 62° |
| 2026-05-05 01:45 | 42.32338 | -70.86689 | 4097 ft | 289 kts | 72° |
| 2026-05-05 01:45 | 42.32865 | -70.84068 | 4626 ft | 292 kts | 76° |
| 2026-05-05 01:46 | 42.33310 | -70.81384 | 5164 ft | 293 kts | 77° |
| 2026-05-05 01:46 | 42.33734 | -70.78675 | 5801 ft | 295 kts | 74° |
| 2026-05-05 01:46 | 42.34619 | -70.76213 | 6407 ft | 291 kts | 45° |
| 2026-05-05 01:46 | 42.36185 | -70.74577 | 7029 ft | 282 kts | 20° |
| 2026-05-05 01:47 | 42.38017 | -70.73712 | 7667 ft | 278 kts | 12° |
| 2026-05-05 01:47 | 42.39852 | -70.72968 | 8313 ft | 280 kts | 12° |
| 2026-05-05 01:47 | 42.41731 | -70.72202 | 8960 ft | 283 kts | 12° |
| 2026-05-05 01:47 | 42.43625 | -70.71460 | 9631 ft | 281 kts | 6° |
| 2026-05-05 01:48 | 42.45519 | -70.71580 | 10352 ft | 271 kts | 340° |
| 2026-05-05 01:48 | 42.47301 | -70.72519 | 10807 ft | 286 kts | 331° |
| 2026-05-05 01:48 | 42.49147 | -70.73757 | 11090 ft | 306 kts | 330° |
| 2026-05-05 01:48 | 42.51093 | -70.75075 | 11432 ft | 313 kts | 330° |
| 2026-05-05 01:49 | 42.52989 | -70.76495 | 12227 ft | 311 kts | 319° |
| 2026-05-05 01:49 | 42.54433 | -70.78638 | 13024 ft | 309 kts | 303° |
| 2026-05-05 01:49 | 42.55651 | -70.81052 | 13816 ft | 311 kts | 301° |
| 2026-05-05 01:49 | 42.56839 | -70.83524 | 14534 ft | 313 kts | 300° |
| 2026-05-05 01:50 | 42.58025 | -70.86010 | 15269 ft | 315 kts | 300° |
| 2026-05-05 01:50 | 42.59222 | -70.88509 | 16017 ft | 316 kts | 301° |
| 2026-05-05 01:50 | 42.60428 | -70.91010 | 16789 ft | 317 kts | 300° |
| 2026-05-05 01:50 | 42.61640 | -70.93516 | 17590 ft | 317 kts | 300° |
| 2026-05-05 01:51 | 42.62854 | -70.96018 | 18366 ft | 317 kts | 300° |
| 2026-05-05 01:51 | 42.64066 | -70.98513 | 19079 ft | 316 kts | 300° |
| 2026-05-05 01:51 | 42.65274 | -71.01000 | 19801 ft | 315 kts | 301° |
| 2026-05-05 01:51 | 42.66477 | -71.03476 | 20548 ft | 313 kts | 301° |
| 2026-05-05 01:52 | 42.67670 | -71.05931 | 21301 ft | 310 kts | 301° |
| 2026-05-05 01:52 | 42.68852 | -71.08367 | 22088 ft | 307 kts | 301° |
| 2026-05-05 01:52 | 42.70020 | -71.10777 | 22888 ft | 303 kts | 301° |
| 2026-05-05 01:52 | 42.71170 | -71.13151 | 23666 ft | 298 kts | 301° |
| 2026-05-05 01:53 | 42.72302 | -71.15489 | 24359 ft | 293 kts | 302° |
| 2026-05-05 01:53 | 42.73416 | -71.17793 | 24924 ft | 293 kts | 302° |
| 2026-05-05 01:53 | 42.74531 | -71.20099 | 25284 ft | 298 kts | 302° |
| 2026-05-05 01:53 | 42.75692 | -71.22505 | 25434 ft | 312 kts | 302° |
| 2026-05-05 01:54 | 42.76913 | -71.25037 | 25542 ft | 326 kts | 302° |
| 2026-05-05 01:54 | 42.78033 | -71.27783 | 25600 ft | 340 kts | 290° |
| 2026-05-05 01:54 | 42.78589 | -71.30975 | 25715 ft | 353 kts | 281° |
| 2026-05-05 01:54 | 42.78980 | -71.34338 | 25801 ft | 366 kts | 280° |
| 2026-05-05 01:55 | 42.79349 | -71.37834 | 25887 ft | 379 kts | 279° |
| 2026-05-05 01:55 | 42.79721 | -71.41430 | 25966 ft | 390 kts | 279° |
| 2026-05-05 01:55 | 42.80108 | -71.45144 | 26040 ft | 401 kts | 279° |
| 2026-05-05 01:55 | 42.80511 | -71.48944 | 26123 ft | 410 kts | 279° |
| 2026-05-05 01:56 | 42.80925 | -71.52804 | 26405 ft | 414 kts | 280° |
| 2026-05-05 01:56 | 42.81344 | -71.56679 | 26824 ft | 414 kts | 279° |
| 2026-05-05 01:56 | 42.81766 | -71.60567 | 27183 ft | 416 kts | 280° |
| 2026-05-05 01:56 | 42.82191 | -71.64472 | 27516 ft | 418 kts | 280° |
| 2026-05-05 01:57 | 42.82617 | -71.68397 | 27834 ft | 420 kts | 280° |
| 2026-05-05 01:57 | 42.83045 | -71.72338 | 28155 ft | 422 kts | 280° |
| 2026-05-05 01:57 | 42.83473 | -71.76297 | 28500 ft | 423 kts | 280° |
| 2026-05-05 01:57 | 42.83902 | -71.80276 | 28879 ft | 424 kts | 280° |
| 2026-05-05 01:58 | 42.84326 | -71.84236 | 29379 ft | 421 kts | 280° |
| 2026-05-05 01:58 | 42.84748 | -71.88181 | 29900 ft | 419 kts | 280° |
| 2026-05-05 01:58 | 42.85165 | -71.92098 | 30278 ft | 418 kts | 280° |
| 2026-05-05 01:58 | 42.85583 | -71.96024 | 30517 ft | 420 kts | 280° |
| 2026-05-05 01:59 | 42.86001 | -71.99967 | 30820 ft | 420 kts | 280° |
| 2026-05-05 01:59 | 42.86402 | -72.03767 | 31239 ft | 417 kts | 281° |
| 2026-05-05 01:59 | 42.86812 | -72.07671 | 31646 ft | 415 kts | 281° |
| 2026-05-05 01:59 | 42.87217 | -72.11567 | 31940 ft | 415 kts | 281° |
| 2026-05-05 02:00 | 42.87623 | -72.15466 | 32260 ft | 415 kts | 281° |
| 2026-05-05 02:00 | 42.88029 | -72.19350 | 32601 ft | 413 kts | 281° |
| 2026-05-05 02:00 | 42.88432 | -72.23219 | 32979 ft | 412 kts | 281° |
| 2026-05-05 02:00 | 42.88833 | -72.27079 | 33318 ft | 411 kts | 281° |
| 2026-05-05 02:01 | 42.89230 | -72.30929 | 33671 ft | 410 kts | 281° |
| 2026-05-05 02:01 | 42.89626 | -72.34773 | 33990 ft | 409 kts | 281° |
| 2026-05-05 02:01 | 42.90019 | -72.38616 | 34241 ft | 409 kts | 281° |
| 2026-05-05 02:01 | 42.90411 | -72.42458 | 34442 ft | 410 kts | 281° |
| 2026-05-05 02:02 | 42.90804 | -72.46313 | 34658 ft | 410 kts | 280° |
| 2026-05-05 02:02 | 42.91195 | -72.50168 | 34910 ft | 410 kts | 280° |
| 2026-05-05 02:02 | 42.91583 | -72.54014 | 35154 ft | 410 kts | 280° |
| 2026-05-05 02:02 | 42.91971 | -72.57867 | 35366 ft | 410 kts | 280° |
| 2026-05-05 02:03 | 42.92358 | -72.61721 | 35587 ft | 410 kts | 279° |
| 2026-05-05 02:03 | 42.92743 | -72.65570 | 35857 ft | 409 kts | 279° |
| 2026-05-05 02:03 | 42.93515 | -72.73329 | 35834 ft | 414 kts | 279° |
| 2026-05-05 02:04 | 42.94274 | -72.81022 | 35828 ft | 409 kts | 279° |
| 2026-05-05 02:04 | 42.95030 | -72.88731 | 35832 ft | 406 kts | 279° |
| 2026-05-05 02:05 | 42.95769 | -72.96320 | 35831 ft | 405 kts | 279° |
| 2026-05-05 02:05 | 42.96502 | -73.03899 | 35837 ft | 412 kts | 279° |
| 2026-05-05 02:06 | 42.97254 | -73.11728 | 35850 ft | 419 kts | 279° |
| 2026-05-05 02:06 | 42.98011 | -73.19671 | 35844 ft | 425 kts | 278° |
| 2026-05-05 02:07 | 42.98771 | -73.27702 | 35828 ft | 427 kts | 279° |
| 2026-05-05 02:07 | 42.99475 | -73.35760 | 35826 ft | 427 kts | 275° |
| 2026-05-05 02:08 | 42.99715 | -73.43862 | 35838 ft | 426 kts | 273° |
| 2026-05-05 02:08 | 42.99868 | -73.51959 | 35813 ft | 426 kts | 273° |
| 2026-05-05 02:09 | 43.00037 | -73.59991 | 35812 ft | 426 kts | 274° |
| 2026-05-05 02:09 | 43.00221 | -73.68079 | 35801 ft | 425 kts | 274° |
| 2026-05-05 02:10 | 43.00403 | -73.76121 | 35787 ft | 422 kts | 274° |
| 2026-05-05 02:10 | 43.00580 | -73.84132 | 35795 ft | 422 kts | 273° |
| 2026-05-05 02:11 | 43.00751 | -73.92147 | 35805 ft | 422 kts | 273° |
| 2026-05-05 02:11 | 43.00916 | -74.00132 | 35803 ft | 422 kts | 273° |
| 2026-05-05 02:12 | 43.01152 | -74.12101 | 35803 ft | 422 kts | 273° |
| 2026-05-05 02:13 | 43.01304 | -74.20119 | 35794 ft | 422 kts | 273° |
| 2026-05-05 02:13 | 43.01471 | -74.28123 | 35793 ft | 421 kts | 274° |
| 2026-05-05 02:14 | 43.01828 | -74.36120 | 35784 ft | 421 kts | 275° |
| 2026-05-05 02:14 | 43.02221 | -74.44097 | 35784 ft | 421 kts | 275° |
| 2026-05-05 02:15 | 43.02589 | -74.52082 | 35789 ft | 421 kts | 275° |
| 2026-05-05 02:15 | 43.02936 | -74.60010 | 35785 ft | 421 kts | 275° |
| 2026-05-05 02:16 | 43.03275 | -74.67997 | 35777 ft | 421 kts | 274° |
| 2026-05-05 02:16 | 43.03608 | -74.75981 | 35777 ft | 421 kts | 274° |
| 2026-05-05 02:17 | 43.03937 | -74.83971 | 35786 ft | 421 kts | 274° |
| 2026-05-05 02:17 | 43.04260 | -74.91965 | 35775 ft | 421 kts | 274° |
| 2026-05-05 02:18 | 43.04577 | -74.99950 | 35781 ft | 421 kts | 274° |
| 2026-05-05 02:18 | 43.04885 | -75.07842 | 35773 ft | 421 kts | 274° |
| 2026-05-05 02:19 | 43.05192 | -75.15831 | 35765 ft | 421 kts | 274° |
| 2026-05-05 02:19 | 43.05494 | -75.23829 | 35774 ft | 421 kts | 274° |
| 2026-05-05 02:20 | 43.05784 | -75.31835 | 35775 ft | 422 kts | 274° |
| 2026-05-05 02:20 | 43.06014 | -75.39858 | 35770 ft | 422 kts | 273° |
| 2026-05-05 02:21 | 43.06226 | -75.47883 | 35775 ft | 423 kts | 273° |
| 2026-05-05 02:21 | 43.06439 | -75.55920 | 35771 ft | 423 kts | 273° |
| 2026-05-05 02:22 | 43.06649 | -75.63957 | 35767 ft | 423 kts | 273° |
| 2026-05-05 02:22 | 43.06856 | -75.72005 | 35763 ft | 423 kts | 273° |
| 2026-05-05 02:23 | 43.07057 | -75.80054 | 35756 ft | 423 kts | 273° |
| 2026-05-05 02:23 | 43.07251 | -75.88021 | 35740 ft | 422 kts | 273° |
| 2026-05-05 02:24 | 43.07441 | -75.96101 | 35741 ft | 421 kts | 273° |
| 2026-05-05 02:24 | 43.07592 | -76.02651 | 35738 ft | 421 kts | 273° |
| 2026-05-05 02:25 | 43.07799 | -76.11963 | 35741 ft | 421 kts | 273° |
| 2026-05-05 02:25 | 43.07971 | -76.19961 | 35745 ft | 421 kts | 272° |
| 2026-05-05 02:26 | 43.08111 | -76.26667 | 35737 ft | 420 kts | 272° |
| 2026-05-05 02:26 | 43.08272 | -76.34602 | 35740 ft | 420 kts | 272° |
| 2026-05-05 02:27 | 43.08428 | -76.42585 | 35740 ft | 420 kts | 272° |
| 2026-05-05 02:27 | 43.08578 | -76.50559 | 35742 ft | 419 kts | 272° |
| 2026-05-05 02:28 | 43.08724 | -76.58529 | 35733 ft | 419 kts | 272° |
| 2026-05-05 02:28 | 43.08459 | -76.66484 | 35727 ft | 421 kts | 261° |
| 2026-05-05 02:29 | 43.06693 | -76.74133 | 35727 ft | 426 kts | 247° |
| 2026-05-05 02:29 | 43.03793 | -76.81233 | 35717 ft | 428 kts | 244° |
| 2026-05-05 02:30 | 43.00808 | -76.88290 | 35742 ft | 428 kts | 244° |
| 2026-05-05 02:30 | 42.97864 | -76.95330 | 35732 ft | 426 kts | 244° |
| 2026-05-05 02:31 | 42.94969 | -77.02288 | 35742 ft | 426 kts | 244° |
| 2026-05-05 02:31 | 42.92062 | -77.09267 | 35744 ft | 426 kts | 244° |
| 2026-05-05 02:32 | 42.89126 | -77.16285 | 35733 ft | 426 kts | 243° |
| 2026-05-05 02:32 | 42.86021 | -77.23173 | 35748 ft | 427 kts | 241° |
| 2026-05-05 02:33 | 42.82829 | -77.30003 | 35745 ft | 427 kts | 241° |
| 2026-05-05 02:33 | 42.79650 | -77.36834 | 35751 ft | 427 kts | 241° |
| 2026-05-05 02:34 | 42.76482 | -77.43672 | 35753 ft | 427 kts | 241° |
| 2026-05-05 02:34 | 42.73315 | -77.50513 | 35743 ft | 427 kts | 241° |
| 2026-05-05 02:35 | 42.70142 | -77.57355 | 35757 ft | 428 kts | 241° |
| 2026-05-05 02:35 | 42.66968 | -77.64183 | 35763 ft | 427 kts | 241° |
| 2026-05-05 02:36 | 42.63797 | -77.70987 | 35762 ft | 426 kts | 241° |
| 2026-05-05 02:36 | 42.60622 | -77.77785 | 35753 ft | 426 kts | 241° |
| 2026-05-05 02:37 | 42.57467 | -77.84523 | 35754 ft | 426 kts | 241° |
| 2026-05-05 02:37 | 42.54286 | -77.91302 | 35785 ft | 426 kts | 241° |
| 2026-05-05 02:38 | 42.51098 | -77.98081 | 35775 ft | 427 kts | 241° |
| 2026-05-05 02:38 | 42.47939 | -78.04783 | 35793 ft | 427 kts | 240° |
| 2026-05-05 02:39 | 42.44739 | -78.11558 | 35783 ft | 427 kts | 240° |
| 2026-05-05 02:39 | 42.41531 | -78.18331 | 35777 ft | 427 kts | 240° |
| 2026-05-05 02:40 | 42.38320 | -78.25098 | 35774 ft | 427 kts | 240° |
| 2026-05-05 02:40 | 42.35103 | -78.31862 | 35782 ft | 428 kts | 240° |
| 2026-05-05 02:41 | 42.31876 | -78.38632 | 35787 ft | 428 kts | 240° |
| 2026-05-05 02:41 | 42.28643 | -78.45399 | 35777 ft | 429 kts | 240° |
| 2026-05-05 02:42 | 42.25402 | -78.52168 | 35781 ft | 429 kts | 240° |
| 2026-05-05 02:42 | 42.22160 | -78.58923 | 35780 ft | 429 kts | 240° |
| 2026-05-05 02:43 | 42.18913 | -78.65674 | 35787 ft | 429 kts | 240° |
| 2026-05-05 02:43 | 42.15666 | -78.72414 | 35767 ft | 428 kts | 240° |
| 2026-05-05 02:44 | 42.12558 | -78.79220 | 35762 ft | 423 kts | 249° |
| 2026-05-05 02:44 | 42.10598 | -78.86660 | 35775 ft | 421 kts | 253° |
| 2026-05-05 02:45 | 42.08763 | -78.94088 | 35774 ft | 421 kts | 253° |
| 2026-05-05 02:45 | 42.06884 | -79.01499 | 35276 ft | 431 kts | 253° |
| 2026-05-05 02:45 | 42.05901 | -79.05305 | 34877 ft | 425 kts | 253° |
| 2026-05-05 02:46 | 42.04930 | -79.09027 | 34451 ft | 416 kts | 253° |
| 2026-05-05 02:46 | 42.03976 | -79.12670 | 34039 ft | 410 kts | 253° |
| 2026-05-05 02:46 | 42.03036 | -79.16254 | 33605 ft | 405 kts | 253° |
| 2026-05-05 02:46 | 42.02098 | -79.19826 | 33164 ft | 406 kts | 252° |
| 2026-05-05 02:47 | 42.01157 | -79.23410 | 32771 ft | 407 kts | 252° |
| 2026-05-05 02:47 | 42.00214 | -79.27001 | 32373 ft | 408 kts | 252° |
| 2026-05-05 02:47 | 41.99269 | -79.30589 | 31987 ft | 409 kts | 252° |
| 2026-05-05 02:47 | 41.98317 | -79.34199 | 31598 ft | 411 kts | 252° |
| 2026-05-05 02:48 | 41.97359 | -79.37827 | 31218 ft | 413 kts | 252° |
| 2026-05-05 02:48 | 41.96396 | -79.41467 | 30833 ft | 414 kts | 252° |
| 2026-05-05 02:48 | 41.95427 | -79.45120 | 30477 ft | 416 kts | 252° |
| 2026-05-05 02:48 | 41.94452 | -79.48793 | 30111 ft | 417 kts | 252° |
| 2026-05-05 02:49 | 41.93475 | -79.52469 | 29736 ft | 419 kts | 251° |
| 2026-05-05 02:49 | 41.92495 | -79.56151 | 29275 ft | 420 kts | 251° |
| 2026-05-05 02:49 | 41.91508 | -79.59851 | 28849 ft | 422 kts | 251° |
| 2026-05-05 02:49 | 41.90514 | -79.63574 | 28435 ft | 424 kts | 251° |
| 2026-05-05 02:50 | 41.89514 | -79.67316 | 28036 ft | 426 kts | 251° |
| 2026-05-05 02:50 | 41.88512 | -79.71055 | 27633 ft | 421 kts | 251° |
| 2026-05-05 02:50 | 41.87545 | -79.74659 | 27220 ft | 411 kts | 251° |
| 2026-05-05 02:50 | 41.86589 | -79.78215 | 26839 ft | 402 kts | 251° |
| 2026-05-05 02:51 | 41.85648 | -79.81711 | 26456 ft | 394 kts | 251° |
| 2026-05-05 02:51 | 41.84727 | -79.85131 | 26067 ft | 386 kts | 251° |
| 2026-05-05 02:51 | 41.83823 | -79.88483 | 25683 ft | 379 kts | 251° |
| 2026-05-05 02:51 | 41.82934 | -79.91779 | 25316 ft | 372 kts | 251° |
| 2026-05-05 02:52 | 41.82058 | -79.95020 | 24957 ft | 367 kts | 251° |
| 2026-05-05 02:52 | 41.81197 | -79.98204 | 24592 ft | 361 kts | 251° |
| 2026-05-05 02:52 | 41.80365 | -80.01274 | 24245 ft | 356 kts | 251° |
| 2026-05-05 02:52 | 41.79526 | -80.04366 | 23893 ft | 351 kts | 251° |
| 2026-05-05 02:53 | 41.78695 | -80.07422 | 23547 ft | 347 kts | 251° |
| 2026-05-05 02:53 | 41.77877 | -80.10445 | 23176 ft | 343 kts | 251° |
| 2026-05-05 02:53 | 41.77071 | -80.13429 | 22757 ft | 339 kts | 251° |
| 2026-05-05 02:53 | 41.76272 | -80.16385 | 22353 ft | 336 kts | 251° |
| 2026-05-05 02:54 | 41.75483 | -80.19303 | 21956 ft | 332 kts | 251° |
| 2026-05-05 02:54 | 41.74692 | -80.22222 | 21433 ft | 333 kts | 251° |
| 2026-05-05 02:54 | 41.73903 | -80.25131 | 20927 ft | 333 kts | 251° |
| 2026-05-05 02:54 | 41.73111 | -80.28049 | 20426 ft | 333 kts | 251° |
| 2026-05-05 02:55 | 41.72319 | -80.30962 | 19935 ft | 333 kts | 251° |
| 2026-05-05 02:55 | 41.71526 | -80.33878 | 19447 ft | 333 kts | 251° |
| 2026-05-05 02:55 | 41.70744 | -80.36745 | 18969 ft | 332 kts | 250° |
| 2026-05-05 02:55 | 41.69951 | -80.39651 | 18499 ft | 332 kts | 250° |
| 2026-05-05 02:56 | 41.69161 | -80.42545 | 18028 ft | 331 kts | 250° |
| 2026-05-05 02:56 | 41.68371 | -80.45434 | 17493 ft | 330 kts | 250° |
| 2026-05-05 02:56 | 41.67581 | -80.48318 | 16967 ft | 330 kts | 250° |
| 2026-05-05 02:56 | 41.66792 | -80.51193 | 16445 ft | 329 kts | 250° |
| 2026-05-05 02:57 | 41.66007 | -80.54054 | 15942 ft | 327 kts | 250° |
| 2026-05-05 02:57 | 41.65224 | -80.56905 | 15441 ft | 326 kts | 250° |
| 2026-05-05 02:57 | 41.64443 | -80.59743 | 14948 ft | 324 kts | 250° |
| 2026-05-05 02:57 | 41.63666 | -80.62566 | 14453 ft | 323 kts | 250° |
| 2026-05-05 02:58 | 41.62893 | -80.65369 | 13984 ft | 321 kts | 250° |
| 2026-05-05 02:58 | 41.62122 | -80.68164 | 13503 ft | 319 kts | 250° |
| 2026-05-05 02:58 | 41.61355 | -80.70940 | 12977 ft | 318 kts | 250° |
| 2026-05-05 02:58 | 41.60590 | -80.73705 | 12430 ft | 316 kts | 251° |
| 2026-05-05 02:59 | 41.59829 | -80.76452 | 11926 ft | 314 kts | 251° |
| 2026-05-05 02:59 | 41.59074 | -80.79175 | 11421 ft | 312 kts | 251° |
| 2026-05-05 02:59 | 41.58324 | -80.81880 | 10918 ft | 310 kts | 250° |
| 2026-05-05 02:59 | 41.57579 | -80.84562 | 10523 ft | 305 kts | 250° |
| 2026-05-05 03:00 | 41.56847 | -80.87194 | 10131 ft | 300 kts | 250° |
| 2026-05-05 03:00 | 41.56124 | -80.89792 | 9749 ft | 296 kts | 250° |
| 2026-05-05 03:00 | 41.55411 | -80.92350 | 9353 ft | 292 kts | 250° |
| 2026-05-05 03:00 | 41.54711 | -80.94863 | 9025 ft | 285 kts | 250° |
| 2026-05-05 03:01 | 41.54027 | -80.97314 | 8771 ft | 277 kts | 250° |
| 2026-05-05 03:01 | 41.53362 | -80.99693 | 8492 ft | 270 kts | 250° |
| 2026-05-05 03:01 | 41.52728 | -81.01961 | 8247 ft | 264 kts | 250° |
| 2026-05-05 03:01 | 41.52093 | -81.04224 | 7989 ft | 258 kts | 250° |
| 2026-05-05 03:02 | 41.51571 | -81.06485 | 7712 ft | 253 kts | 261° |
| 2026-05-05 03:02 | 41.51450 | -81.08800 | 7482 ft | 248 kts | 265° |
| 2026-05-05 03:02 | 41.51373 | -81.11078 | 7232 ft | 244 kts | 265° |
| 2026-05-05 03:02 | 41.51294 | -81.13308 | 7061 ft | 237 kts | 265° |
| 2026-05-05 03:03 | 41.51215 | -81.15450 | 7008 ft | 226 kts | 264° |
| 2026-05-05 03:03 | 41.51136 | -81.17483 | 7003 ft | 214 kts | 264° |
| 2026-05-05 03:03 | 41.51060 | -81.19384 | 7003 ft | 202 kts | 264° |
| 2026-05-05 03:03 | 41.50984 | -81.21253 | 6847 ft | 197 kts | 264° |
| 2026-05-05 03:04 | 41.50910 | -81.23011 | 6834 ft | 190 kts | 263° |
| 2026-05-05 03:04 | 41.50836 | -81.24758 | 6812 ft | 189 kts | 264° |
| 2026-05-05 03:04 | 41.50763 | -81.26500 | 6796 ft | 187 kts | 264° |
| 2026-05-05 03:04 | 41.50689 | -81.28226 | 6790 ft | 185 kts | 264° |
| 2026-05-05 03:05 | 41.50617 | -81.29930 | 6795 ft | 183 kts | 263° |
| 2026-05-05 03:05 | 41.50540 | -81.31671 | 6828 ft | 199 kts | 263° |
| 2026-05-05 03:05 | 41.50453 | -81.33637 | 6726 ft | 219 kts | 264° |
| 2026-05-05 03:05 | 41.50366 | -81.35679 | 6590 ft | 222 kts | 264° |
| 2026-05-05 03:06 | 41.50278 | -81.37743 | 6446 ft | 224 kts | 264° |
| 2026-05-05 03:06 | 41.50187 | -81.39825 | 6303 ft | 226 kts | 264° |
| 2026-05-05 03:06 | 41.50097 | -81.41906 | 6088 ft | 222 kts | 264° |
| 2026-05-05 03:06 | 41.50068 | -81.43944 | 5902 ft | 218 kts | 268° |
| 2026-05-05 03:07 | 41.50120 | -81.45938 | 5713 ft | 213 kts | 268° |
| 2026-05-05 03:07 | 41.50177 | -81.47893 | 5513 ft | 209 kts | 268° |
| 2026-05-05 03:07 | 41.50228 | -81.49812 | 5326 ft | 205 kts | 268° |
| 2026-05-05 03:07 | 41.50275 | -81.51693 | 5141 ft | 200 kts | 268° |
| 2026-05-05 03:08 | 41.50319 | -81.53515 | 5045 ft | 192 kts | 267° |
| 2026-05-05 03:08 | 41.50360 | -81.55261 | 5032 ft | 186 kts | 267° |
| 2026-05-05 03:08 | 41.50399 | -81.56996 | 4835 ft | 189 kts | 267° |
| 2026-05-05 03:08 | 41.50438 | -81.58769 | 4539 ft | 193 kts | 268° |
| 2026-05-05 03:09 | 41.50479 | -81.60564 | 4262 ft | 194 kts | 268° |
| 2026-05-05 03:09 | 41.50518 | -81.62378 | 3951 ft | 197 kts | 268° |
| 2026-05-05 03:09 | 41.50558 | -81.64216 | 3645 ft | 199 kts | 267° |
| 2026-05-05 03:09 | 41.50577 | -81.66058 | 3385 ft | 196 kts | 261° |
| 2026-05-05 03:10 | 41.50234 | -81.67742 | 3110 ft | 187 kts | 250° |
| 2026-05-05 03:10 | 41.49841 | -81.69326 | 2988 ft | 173 kts | 250° |
| 2026-05-05 03:10 | 41.49480 | -81.70819 | 2740 ft | 165 kts | 251° |
| 2026-05-05 03:10 | 41.49147 | -81.72202 | 2508 ft | 150 kts | 251° |
| 2026-05-05 03:11 | 41.48689 | -81.73390 | 2279 ft | 139 kts | 235° |
| 2026-05-05 03:11 | 41.48152 | -81.74384 | 2103 ft | 125 kts | 235° |
| 2026-05-05 03:11 | 41.47594 | -81.75321 | 2002 ft | 135 kts | 231° |
| 2026-05-05 03:11 | 41.46985 | -81.76288 | 2020 ft | 137 kts | 231° |
| 2026-05-05 03:12 | 41.46377 | -81.77254 | 2008 ft | 135 kts | 233° |
| 2026-05-05 03:12 | 41.45768 | -81.78216 | 2001 ft | 134 kts | 232° |
| 2026-05-05 03:12 | 41.45173 | -81.79159 | 1944 ft | 139 kts | 231° |
| 2026-05-05 03:12 | 41.44553 | -81.80137 | 1761 ft | 134 kts | 231° |
| 2026-05-05 03:13 | 41.43951 | -81.81086 | 1580 ft | 132 kts | 231° |
| 2026-05-05 03:13 | 41.43379 | -81.82021 | 1413 ft | 130 kts | 229° |
| 2026-05-05 03:13 | 41.42821 | -81.82922 | 1279 ft | 123 kts | 227° |
| 2026-05-05 03:13 | 41.42445 | -81.83488 | 1113 ft | 125 kts | 226° |
| 2026-05-05 03:14 | 41.41860 | -81.84381 | 948 ft | 130 kts | 228° |
| 2026-05-05 03:14 | 41.41152 | -81.85504 | 789 ft | 107 kts | 229° |
| 2026-05-05 03:14 | 41.40812 | -81.86052 | 787 ft | 47 kts | 230° |
| 2026-05-05 03:14 | 41.40620 | -81.86249 | 782 ft | 26 kts | 189° |
| 2026-05-05 03:15 | 41.40534 | -81.86216 | 780 ft | 11 kts | 136° |
| 2026-05-05 03:15 | 41.40498 | -81.86169 | 779 ft | 11 kts | 136° |
| 2026-05-05 03:15 | 41.40436 | -81.86102 | 777 ft | 13 kts | 142° |
| 2026-05-05 03:15 | 41.40355 | -81.86019 | 777 ft | 15 kts | 141° |
| 2026-05-05 03:16 | 41.40320 | -81.85906 | 780 ft | 17 kts | 59° |
| 2026-05-05 03:16 | 41.40417 | -81.85745 | 784 ft | 27 kts | 47° |
| 2026-05-05 03:16 | 41.40564 | -81.85517 | 784 ft | 38 kts | 51° |
| 2026-05-05 03:16 | 41.40659 | -81.85301 | 783 ft | 20 kts | 99° |
| 2026-05-05 03:17 | 41.40632 | -81.85072 | 787 ft | 29 kts | 92° |
| 2026-05-05 03:17 | 41.40633 | -81.84806 | 791 ft | 31 kts | 94° |
| 2026-05-05 03:17 | 41.40624 | -81.84597 | 794 ft | 17 kts | 92° |
| 2026-05-05 03:17 | 41.40631 | -81.84447 | 796 ft | 16 kts | 64° |
| 2026-05-05 03:18 | 41.40682 | -81.84426 | 796 ft | 5 kts | 359° |
| 2026-05-05 03:18 | 41.40715 | -81.84432 | 797 ft | 4 kts | 352° |
| 2026-05-05 03:18 | 41.40748 | -81.84435 | 797 ft | 7 kts | 358° |
| 2026-05-05 03:18 | 41.40837 | -81.84434 | 796 ft | 18 kts | 2° |
| 2026-05-05 03:19 | 41.40838 | -81.84261 | 797 ft | 10 kts | 132° |
| 2026-05-05 03:19 | 41.40823 | -81.84223 | 797 ft | 0 kts | 113° |